Time,TemperatureF,DewpointF,PressureIn,WindDirection,WindDirectionDegrees,WindSpeedMPH,WindSpeedGustMPH,Humidity,HourlyPrecipIn,Conditions,Clouds,dailyrainin,SolarRadiationWatts/m^2,SoftwareType,DateUTC
2013-03-22 00:04:00,34.4,33.4,30.15,ENE,61,0.0,0.0,96,0.01,,---,0.00,0.00,VWS V14.01,2013-03-22 07:04:00,
2013-03-22 00:09:00,34.4,33.4,30.15,ENE,61,0.0,1.0,96,0.01,,---,0.00,0.00,VWS V14.01,2013-03-22 07:09:00,
2013-03-22 00:14:00,34.4,33.4,30.15,East,90,0.0,2.0,96,0.01,,---,0.00,0.00,VWS V14.01,2013-03-22 07:14:00,
2013-03-22 00:19:00,34.4,33.4,30.15,SSE,160,0.0,2.0,96,0.01,,---,0.00,0.00,VWS V14.01,2013-03-22 07:19:00,
2013-03-22 00:24:00,34.4,33.4,30.15,NNE,33,0.0,1.0,96,0.01,,---,0.00,0.00,VWS V14.01,2013-03-22 07:24:00,
2013-03-22 00:29:00,34.4,33.4,30.15,ESE,103,0.0,5.0,96,0.02,,---,0.01,0.00,VWS V14.01,2013-03-22 07:29:00,
2013-03-22 00:34:00,34.2,33.2,30.15,East,92,0.0,4.0,96,0.02,,---,0.01,0.00,VWS V14.01,2013-03-22 07:34:00,
2013-03-22 00:39:00,34.0,32.7,30.15,NW,319,0.0,2.0,95,0.02,,---,0.01,0.00,VWS V14.01,2013-03-22 07:39:00,
2013-03-22 00:44:00,33.8,32.5,30.15,NW,319,0.0,1.0,95,0.02,,---,0.01,0.00,VWS V14.01,2013-03-22 07:44:00,
2013-03-22 00:49:00,33.6,32.3,30.16,NW,311,0.0,1.0,95,0.01,,---,0.01,0.00,VWS V14.01,2013-03-22 07:49:00,
2013-03-22 00:54:00,33.5,32.2,30.16,NW,311,0.0,1.0,95,0.01,,---,0.01,0.00,VWS V14.01,2013-03-22 07:54:00,
2013-03-22 00:59:00,33.4,32.4,30.16,NW,311,0.0,0.0,96,0.01,,---,0.01,0.00,VWS V14.01,2013-03-22 07:59:00,
2013-03-22 01:04:00,33.4,32.1,30.16,NW,311,0.0,0.0,95,0.01,,---,0.01,0.00,VWS V14.01,2013-03-22 08:04:00,
2013-03-22 01:09:00,33.3,32.0,30.15,NW,311,0.0,0.0,95,0.01,,---,0.01,0.00,VWS V14.01,2013-03-22 08:09:00,
2013-03-22 01:14:00,33.2,32.2,30.15,NW,311,0.0,0.0,96,0.01,,---,0.01,0.00,VWS V14.01,2013-03-22 08:14:00,
2013-03-22 01:19:00,33.1,32.1,30.16,NW,311,0.0,0.0,96,0.01,,---,0.01,0.00,VWS V14.01,2013-03-22 08:19:00,
2013-03-22 01:24:00,33.0,32.0,30.16,NW,311,0.0,0.0,96,0.01,,---,0.01,0.00,VWS V14.01,2013-03-22 08:24:00,
2013-03-22 01:29:00,32.9,31.6,30.16,SE,133,0.0,2.0,95,0.00,,---,0.01,0.00,VWS V14.01,2013-03-22 08:29:00,
2013-03-22 01:34:00,32.9,31.6,30.15,SE,133,0.0,2.0,95,0.00,,---,0.01,0.00,VWS V14.01,2013-03-22 08:34:00,
2013-03-22 01:39:00,32.9,31.9,30.15,SE,133,0.0,2.0,96,0.00,,---,0.01,0.00,VWS V14.01,2013-03-22 08:39:00,
2013-03-22 01:44:00,32.9,31.9,30.15,East,82,0.0,2.0,96,0.00,,---,0.01,0.00,VWS V14.01,2013-03-22 08:44:00,
2013-03-22 01:49:00,32.8,31.8,30.15,East,82,0.0,1.0,96,0.00,,---,0.01,0.00,VWS V14.01,2013-03-22 08:49:00,
2013-03-22 01:54:00,32.8,31.8,30.16,East,83,0.0,1.0,96,0.00,,---,0.01,0.00,VWS V14.01,2013-03-22 08:54:00,
2013-03-22 01:59:00,32.8,31.8,30.15,East,83,0.0,0.0,96,0.00,,---,0.01,0.00,VWS V14.01,2013-03-22 08:59:00,
2013-03-22 02:04:00,32.7,31.7,30.15,ESE,113,0.0,1.0,96,0.00,,---,0.01,0.00,VWS V14.01,2013-03-22 09:04:00,
2013-03-22 02:09:00,32.6,31.6,30.16,SW,234,0.0,3.0,96,0.00,,---,0.01,0.00,VWS V14.01,2013-03-22 09:09:00,
2013-03-22 02:14:00,32.5,31.5,30.16,SW,234,1.0,3.0,96,0.00,,---,0.01,0.00,VWS V14.01,2013-03-22 09:14:00,
2013-03-22 02:19:00,32.5,31.2,30.16,SW,223,0.0,2.0,95,0.00,,---,0.01,0.00,VWS V14.01,2013-03-22 09:19:00,
2013-03-22 02:24:00,32.5,31.2,30.16,ESE,105,0.0,2.0,95,0.00,,---,0.01,0.00,VWS V14.01,2013-03-22 09:24:00,
2013-03-22 02:29:00,32.5,31.2,30.16,WSW,246,0.0,4.0,95,0.00,,---,0.01,0.00,VWS V14.01,2013-03-22 09:29:00,
2013-03-22 02:34:00,32.4,31.4,30.16,WSW,239,0.0,2.0,96,0.00,,---,0.01,0.00,VWS V14.01,2013-03-22 09:34:00,
2013-03-22 02:39:00,32.2,30.9,30.16,WSW,239,0.0,2.0,95,0.00,,---,0.01,0.00,VWS V14.01,2013-03-22 09:39:00,
2013-03-22 02:44:00,32.1,30.8,30.16,West,270,1.0,3.0,95,0.00,,---,0.01,0.00,VWS V14.01,2013-03-22 09:44:00,
2013-03-22 02:49:00,32.1,31.1,30.17,South,174,0.0,5.0,96,0.00,,---,0.01,0.00,VWS V14.01,2013-03-22 09:49:00,
2013-03-22 02:54:00,32.1,31.1,30.17,NW,304,3.0,5.0,96,0.00,,---,0.01,0.00,VWS V14.01,2013-03-22 09:54:00,
2013-03-22 02:59:00,32.2,31.2,30.17,WSW,252,0.0,5.0,96,0.00,,---,0.01,0.00,VWS V14.01,2013-03-22 09:59:00,
2013-03-22 03:04:00,32.2,31.2,30.16,WNW,288,3.0,4.0,96,0.00,,---,0.01,0.00,VWS V14.01,2013-03-22 10:04:00,
2013-03-22 03:09:00,32.3,31.3,30.16,WSW,257,0.0,4.0,96,0.00,,---,0.01,0.00,VWS V14.01,2013-03-22 10:09:00,
2013-03-22 03:14:00,32.3,31.3,30.16,WSW,248,2.0,3.0,96,0.00,,---,0.01,0.00,VWS V14.01,2013-03-22 10:14:00,
2013-03-22 03:19:00,32.3,31.3,30.16,SW,223,2.0,3.0,96,0.00,,---,0.01,0.00,VWS V14.01,2013-03-22 10:19:00,
2013-03-22 03:24:00,32.4,31.4,30.16,West,277,0.0,4.0,96,0.00,,---,0.01,0.00,VWS V14.01,2013-03-22 10:24:00,
2013-03-22 03:29:00,32.4,31.1,30.16,SSW,213,0.0,5.0,95,0.00,,---,0.01,0.00,VWS V14.01,2013-03-22 10:29:00,
2013-03-22 03:34:00,32.4,31.4,30.16,SW,221,0.0,6.0,96,0.00,,---,0.01,0.00,VWS V14.01,2013-03-22 10:34:00,
2013-03-22 03:39:00,32.5,31.2,30.16,SSW,196,3.0,6.0,95,0.00,,---,0.01,0.00,VWS V14.01,2013-03-22 10:39:00,
2013-03-22 03:45:00,32.5,31.2,30.16,SW,215,1.0,6.0,95,0.00,,---,0.01,0.00,VWS V14.01,2013-03-22 10:45:00,
2013-03-22 03:50:00,32.5,31.2,30.16,East,94,0.0,6.0,95,0.00,,---,0.01,0.00,VWS V14.01,2013-03-22 10:50:00,
2013-03-22 03:55:00,32.6,31.3,30.16,WSW,249,0.0,4.0,95,0.00,,---,0.01,0.00,VWS V14.01,2013-03-22 10:55:00,
2013-03-22 04:00:00,32.6,31.3,30.16,South,188,1.0,4.0,95,0.00,,---,0.01,0.00,VWS V14.01,2013-03-22 11:00:00,
2013-03-22 04:05:00,32.6,31.3,30.17,West,261,2.0,4.0,95,0.00,,---,0.01,0.00,VWS V14.01,2013-03-22 11:05:00,
2013-03-22 04:10:00,32.6,31.3,30.17,West,266,2.0,4.0,95,0.00,,---,0.01,0.00,VWS V14.01,2013-03-22 11:10:00,
2013-03-22 04:15:00,32.7,31.4,30.17,SW,216,1.0,4.0,95,0.00,,---,0.01,0.00,VWS V14.01,2013-03-22 11:15:00,
2013-03-22 04:20:00,32.7,31.4,30.17,SW,227,0.0,3.0,95,0.00,,---,0.01,0.00,VWS V14.01,2013-03-22 11:20:00,
2013-03-22 04:25:00,32.8,31.5,30.17,SW,214,0.0,6.0,95,0.00,,---,0.01,0.00,VWS V14.01,2013-03-22 11:25:00,
2013-03-22 04:30:00,32.8,31.3,30.17,SW,226,0.0,2.0,94,0.00,,---,0.01,0.00,VWS V14.01,2013-03-22 11:30:00,
2013-03-22 04:35:00,32.8,31.3,30.17,WSW,237,0.0,1.0,94,0.00,,---,0.01,0.00,VWS V14.01,2013-03-22 11:35:00,
2013-03-22 04:40:00,32.8,31.3,30.18,NNE,17,0.0,2.0,94,0.00,,---,0.01,0.00,VWS V14.01,2013-03-22 11:40:00,
2013-03-22 04:45:00,32.9,31.4,30.18,North,351,0.0,1.0,94,0.00,,---,0.01,0.00,VWS V14.01,2013-03-22 11:45:00,
2013-03-22 04:50:00,32.9,31.4,30.18,North,351,0.0,0.0,94,0.00,,---,0.01,0.00,VWS V14.01,2013-03-22 11:50:00,
2013-03-22 04:55:00,32.9,31.4,30.18,North,355,0.0,0.0,94,0.00,,---,0.01,0.00,VWS V14.01,2013-03-22 11:55:00,
2013-03-22 05:00:00,32.9,31.6,30.18,North,355,0.0,0.0,95,0.00,,---,0.01,0.00,VWS V14.01,2013-03-22 12:00:00,
2013-03-22 05:05:00,32.9,31.4,30.18,North,355,0.0,0.0,94,0.00,,---,0.01,0.00,VWS V14.01,2013-03-22 12:05:00,
2013-03-22 05:10:00,33.0,31.5,30.18,West,267,0.0,1.0,94,0.00,,---,0.01,0.00,VWS V14.01,2013-03-22 12:10:00,
2013-03-22 05:15:00,32.9,31.4,30.18,West,274,1.0,1.0,94,0.00,,---,0.01,0.00,VWS V14.01,2013-03-22 12:15:00,
2013-03-22 05:20:00,33.0,31.7,30.18,SSE,166,0.0,2.0,95,0.00,,---,0.01,0.00,VWS V14.01,2013-03-22 12:20:00,
2013-03-22 05:25:00,33.0,31.5,30.18,SSE,165,0.0,2.0,94,0.00,,---,0.01,0.00,VWS V14.01,2013-03-22 12:25:00,
2013-03-22 05:30:00,33.0,31.5,30.18,SSE,157,1.0,2.0,94,0.00,,---,0.01,0.00,VWS V14.01,2013-03-22 12:30:00,
2013-03-22 05:35:00,32.9,31.4,30.18,SE,132,0.0,2.0,94,0.00,,---,0.01,0.00,VWS V14.01,2013-03-22 12:35:00,
2013-03-22 05:40:00,32.9,31.6,30.18,SW,218,0.0,4.0,95,0.00,,---,0.01,0.00,VWS V14.01,2013-03-22 12:40:00,
2013-03-22 05:45:00,32.9,31.4,30.18,East,90,0.0,5.0,94,0.00,,---,0.01,0.00,VWS V14.01,2013-03-22 12:45:00,
2013-03-22 05:50:00,32.9,31.4,30.18,ESE,104,0.0,2.0,94,0.00,,---,0.01,0.00,VWS V14.01,2013-03-22 12:50:00,
2013-03-22 05:55:00,32.9,31.4,30.19,West,277,2.0,4.0,94,0.00,,---,0.01,0.00,VWS V14.01,2013-03-22 12:55:00,
2013-03-22 06:00:00,32.9,31.4,30.19,West,275,0.0,4.0,94,0.00,,---,0.01,0.00,VWS V14.01,2013-03-22 13:00:00,
2013-03-22 06:05:00,32.9,31.4,30.19,WNW,302,2.0,3.0,94,0.00,,---,0.01,0.00,VWS V14.01,2013-03-22 13:05:00,
2013-03-22 06:10:00,32.9,31.4,30.19,WNW,302,0.0,3.0,94,0.00,,---,0.01,0.00,VWS V14.01,2013-03-22 13:10:00,
2013-03-22 06:15:00,32.9,31.4,30.19,WNW,302,0.0,0.0,94,0.00,,---,0.01,0.00,VWS V14.01,2013-03-22 13:15:00,
2013-03-22 06:20:00,33.0,31.5,30.19,SSE,154,0.0,2.0,94,0.00,,---,0.01,0.00,VWS V14.01,2013-03-22 13:20:00,
2013-03-22 06:25:00,33.0,31.5,30.19,SSE,154,0.0,2.0,94,0.00,,---,0.01,0.00,VWS V14.01,2013-03-22 13:25:00,
2013-03-22 06:30:00,32.9,31.4,30.20,SSE,154,0.0,0.0,94,0.00,,---,0.01,0.00,VWS V14.01,2013-03-22 13:30:00,
2013-03-22 06:35:00,32.9,31.4,30.20,SSE,154,0.0,0.0,94,0.00,,---,0.01,0.00,VWS V14.01,2013-03-22 13:35:00,
2013-03-22 06:40:00,33.0,31.5,30.20,SSE,154,0.0,0.0,94,0.00,,---,0.01,0.00,VWS V14.01,2013-03-22 13:40:00,
2013-03-22 06:45:00,33.0,31.5,30.20,SSE,154,0.0,0.0,94,0.00,,---,0.01,0.00,VWS V14.01,2013-03-22 13:45:00,
2013-03-22 06:50:00,32.9,31.4,30.20,SSE,154,0.0,0.0,94,0.00,,---,0.01,0.00,VWS V14.01,2013-03-22 13:50:00,
2013-03-22 06:55:00,32.9,31.4,30.20,SSE,154,0.0,0.0,94,0.00,,---,0.01,0.00,VWS V14.01,2013-03-22 13:55:00,
2013-03-22 07:00:00,32.9,31.4,30.20,SSE,154,0.0,0.0,94,0.00,,---,0.01,0.00,VWS V14.01,2013-03-22 14:00:00,
2013-03-22 07:05:00,32.8,31.3,30.20,SSE,155,0.0,0.0,94,0.00,,---,0.01,0.00,VWS V14.01,2013-03-22 14:05:00,
2013-03-22 07:10:00,32.9,31.4,30.20,SSE,155,0.0,0.0,94,0.00,,---,0.01,0.00,VWS V14.01,2013-03-22 14:10:00,
2013-03-22 07:15:00,32.9,31.6,30.20,SSE,154,0.0,0.0,95,0.00,,---,0.01,0.00,VWS V14.01,2013-03-22 14:15:00,
2013-03-22 07:20:00,32.9,31.6,30.20,SSE,154,0.0,0.0,95,0.00,,---,0.01,0.00,VWS V14.01,2013-03-22 14:20:00,
2013-03-22 07:25:00,32.9,31.6,30.21,SSE,154,0.0,0.0,95,0.00,,---,0.01,0.00,VWS V14.01,2013-03-22 14:25:00,
2013-03-22 07:30:00,32.9,31.6,30.21,SSE,154,0.0,0.0,95,0.00,,---,0.01,0.00,VWS V14.01,2013-03-22 14:30:00,
2013-03-22 07:35:00,33.0,31.7,30.21,SSW,198,0.0,2.0,95,0.00,,---,0.01,0.00,VWS V14.01,2013-03-22 14:35:00,
2013-03-22 07:40:00,33.0,31.7,30.22,SSW,198,0.0,2.0,95,0.00,,---,0.01,0.00,VWS V14.01,2013-03-22 14:40:00,
2013-03-22 07:45:00,33.0,31.7,30.21,SSW,198,0.0,0.0,95,0.00,,---,0.01,0.00,VWS V14.01,2013-03-22 14:45:00,
2013-03-22 07:50:00,32.9,31.6,30.22,SSW,198,0.0,0.0,95,0.00,,---,0.01,0.00,VWS V14.01,2013-03-22 14:50:00,
2013-03-22 07:55:00,32.8,31.5,30.22,SSW,198,0.0,0.0,95,0.00,,---,0.01,0.00,VWS V14.01,2013-03-22 14:55:00,
2013-03-22 08:00:00,32.7,31.4,30.22,SSW,198,0.0,0.0,95,0.00,,---,0.01,0.00,VWS V14.01,2013-03-22 15:00:00,
2013-03-22 08:05:00,32.6,31.3,30.22,NNW,338,0.0,0.0,95,0.00,,---,0.01,0.00,VWS V14.01,2013-03-22 15:05:00,
2013-03-22 08:10:00,32.5,31.2,30.22,NNW,340,0.0,0.0,95,0.00,,---,0.01,0.00,VWS V14.01,2013-03-22 15:10:00,
2013-03-22 08:15:00,32.4,31.1,30.22,NNW,340,0.0,0.0,95,0.00,,---,0.01,0.00,VWS V14.01,2013-03-22 15:15:00,
2013-03-22 08:20:00,32.4,31.1,30.22,NNW,340,0.0,0.0,95,0.00,,---,0.01,5.00,VWS V14.01,2013-03-22 15:20:00,
2013-03-22 08:25:00,32.5,31.2,30.22,NNW,340,0.0,0.0,95,0.00,,---,0.01,5.00,VWS V14.01,2013-03-22 15:25:00,
2013-03-22 08:30:00,32.5,31.2,30.23,NNW,340,0.0,0.0,95,0.00,,---,0.01,7.00,VWS V14.01,2013-03-22 15:30:00,
2013-03-22 08:35:00,32.5,31.2,30.23,NNW,340,0.0,0.0,95,0.00,,---,0.01,9.00,VWS V14.01,2013-03-22 15:35:00,
2013-03-22 08:40:00,32.5,31.2,30.23,NNW,340,0.0,0.0,95,0.00,,---,0.01,12.00,VWS V14.01,2013-03-22 15:40:00,
2013-03-22 08:45:00,32.6,31.3,30.23,NNW,340,0.0,0.0,95,0.00,,---,0.01,14.00,VWS V14.01,2013-03-22 15:45:00,
2013-03-22 08:50:00,32.8,31.5,30.23,NNW,340,0.0,0.0,95,0.00,,---,0.01,18.00,VWS V14.01,2013-03-22 15:50:00,
2013-03-22 08:55:00,33.0,31.7,30.23,NNW,340,0.0,0.0,95,0.00,,---,0.01,16.00,VWS V14.01,2013-03-22 15:55:00,
2013-03-22 09:00:00,33.3,32.3,30.23,NNW,340,0.0,0.0,96,0.00,,---,0.01,14.00,VWS V14.01,2013-03-22 16:00:00,
2013-03-22 09:05:00,33.5,32.2,30.23,NNW,340,0.0,0.0,95,0.00,,---,0.01,14.00,VWS V14.01,2013-03-22 16:05:00,
2013-03-22 09:10:00,33.6,32.6,30.23,NNW,340,0.0,0.0,96,0.00,,---,0.01,16.00,VWS V14.01,2013-03-22 16:10:00,
2013-03-22 09:15:00,33.7,32.4,30.23,NNW,340,0.0,0.0,95,0.00,,---,0.01,16.00,VWS V14.01,2013-03-22 16:15:00,
2013-03-22 09:20:00,33.7,32.4,30.24,NNW,340,0.0,0.0,95,0.00,,---,0.01,18.00,VWS V14.01,2013-03-22 16:20:00,
2013-03-22 09:26:00,33.9,32.6,30.24,NNW,340,0.0,0.0,95,0.00,,---,0.01,16.00,VWS V14.01,2013-03-22 16:26:00,
2013-03-22 09:31:00,34.1,32.8,30.24,NNW,340,0.0,0.0,95,0.00,,---,0.01,18.00,VWS V14.01,2013-03-22 16:31:00,
2013-03-22 09:36:00,34.1,32.8,30.24,NNW,340,0.0,0.0,95,0.00,,---,0.01,25.00,VWS V14.01,2013-03-22 16:36:00,
2013-03-22 09:41:00,34.1,32.8,30.24,NNW,340,0.0,0.0,95,0.00,,---,0.01,33.00,VWS V14.01,2013-03-22 16:41:00,
2013-03-22 09:46:00,34.4,33.1,30.24,NNW,340,0.0,0.0,95,0.00,,---,0.01,47.00,VWS V14.01,2013-03-22 16:46:00,
2013-03-22 09:51:00,34.6,33.3,30.24,NNW,340,0.0,0.0,95,0.00,,---,0.01,56.00,VWS V14.01,2013-03-22 16:51:00,
2013-03-22 09:56:00,34.8,33.2,30.24,NNW,340,0.0,0.0,94,0.00,,---,0.01,76.00,VWS V14.01,2013-03-22 16:56:00,
2013-03-22 10:01:00,35.2,33.7,30.24,NNW,340,0.0,1.0,94,0.01,,---,0.02,93.00,VWS V14.01,2013-03-22 17:01:00,
2013-03-22 10:06:00,35.4,33.6,30.24,NNW,340,0.0,0.0,93,0.01,,---,0.02,65.00,VWS V14.01,2013-03-22 17:06:00,
2013-03-22 10:11:00,35.4,33.3,30.24,NNW,340,0.0,0.0,92,0.02,,---,0.03,63.00,VWS V14.01,2013-03-22 17:11:00,
2013-03-22 10:16:00,35.3,33.2,30.24,NE,43,0.0,2.0,92,0.02,,---,0.03,125.00,VWS V14.01,2013-03-22 17:16:00,
2013-03-22 10:21:00,35.5,33.7,30.24,NE,43,0.0,1.0,93,0.02,,---,0.03,120.00,VWS V14.01,2013-03-22 17:21:00,
2013-03-22 10:26:00,35.5,33.4,30.25,NNW,330,0.0,1.0,92,0.03,,---,0.04,135.00,VWS V14.01,2013-03-22 17:26:00,
2013-03-22 10:31:00,35.5,33.4,30.25,NE,34,0.0,2.0,92,0.03,,---,0.04,137.00,VWS V14.01,2013-03-22 17:31:00,
2013-03-22 10:36:00,35.7,33.6,30.25,ENE,66,1.0,2.0,92,0.04,,---,0.05,183.00,VWS V14.01,2013-03-22 17:36:00,
2013-03-22 10:41:00,35.7,33.6,30.25,East,86,0.0,2.0,92,0.04,,---,0.05,220.00,VWS V14.01,2013-03-22 17:41:00,
2013-03-22 10:47:00,36.3,34.5,30.25,East,94,0.0,4.0,93,0.04,,---,0.05,406.00,VWS V14.01,2013-03-22 17:47:00,
2013-03-22 10:52:00,36.9,35.1,30.25,East,81,0.0,4.0,93,0.05,,---,0.06,564.00,VWS V14.01,2013-03-22 17:52:00,
2013-03-22 10:57:00,37.9,35.8,30.25,East,86,0.0,2.0,92,0.05,,---,0.06,598.00,VWS V14.01,2013-03-22 17:57:00,
2013-03-22 11:02:00,38.5,36.1,30.25,ENE,57,0.0,2.0,91,0.05,,---,0.07,568.00,VWS V14.01,2013-03-22 18:02:00,
2013-03-22 11:07:00,38.6,35.4,30.25,ENE,76,0.0,3.0,88,0.05,,---,0.07,598.00,VWS V14.01,2013-03-22 18:07:00,
2013-03-22 11:12:00,39.0,36.6,30.25,NW,310,0.0,3.0,91,0.05,,---,0.08,715.00,VWS V14.01,2013-03-22 18:12:00,
2013-03-22 11:17:00,39.9,37.8,30.25,West,269,0.0,2.0,92,0.05,,---,0.08,795.00,VWS V14.01,2013-03-22 18:17:00,
2013-03-22 11:22:00,40.4,37.4,30.25,SE,142,0.0,4.0,89,0.05,,---,0.09,786.00,VWS V14.01,2013-03-22 18:22:00,
2013-03-22 11:27:00,40.9,37.9,30.25,East,88,2.0,4.0,89,0.05,,---,0.09,891.00,VWS V14.01,2013-03-22 18:27:00,
2013-03-22 11:32:00,40.7,36.2,30.25,East,86,1.0,4.0,84,0.05,,---,0.09,220.00,VWS V14.01,2013-03-22 18:32:00,
2013-03-22 11:37:00,40.3,35.6,30.25,East,86,0.0,2.0,83,0.05,,---,0.10,336.00,VWS V14.01,2013-03-22 18:37:00,
2013-03-22 11:42:00,40.1,35.7,30.25,East,86,0.0,2.0,84,0.05,,---,0.10,234.00,VWS V14.01,2013-03-22 18:42:00,
2013-03-22 11:47:00,40.1,36.3,30.25,East,86,0.0,2.0,86,0.05,,---,0.10,193.00,VWS V14.01,2013-03-22 18:47:00,
2013-03-22 11:52:00,40.0,35.9,30.25,East,86,0.0,0.0,85,0.04,,---,0.10,192.00,VWS V14.01,2013-03-22 18:52:00,
2013-03-22 11:57:00,40.0,36.5,30.25,East,86,0.0,0.0,87,0.04,,---,0.10,283.00,VWS V14.01,2013-03-22 18:57:00,
2013-03-22 12:02:00,40.0,35.9,30.25,East,86,0.0,0.0,85,0.04,,---,0.11,257.00,VWS V14.01,2013-03-22 19:02:00,
2013-03-22 12:07:00,40.1,36.3,30.25,East,86,0.0,1.0,86,0.04,,---,0.11,227.00,VWS V14.01,2013-03-22 19:07:00,
2013-03-22 12:12:00,40.2,36.7,30.25,East,86,0.0,2.0,87,0.03,,---,0.11,237.00,VWS V14.01,2013-03-22 19:12:00,
2013-03-22 12:17:00,40.8,37.8,30.25,East,86,1.0,2.0,89,0.03,,---,0.11,364.00,VWS V14.01,2013-03-22 19:17:00,
2013-03-22 12:22:00,41.7,38.4,30.25,North,351,0.0,3.0,88,0.02,,---,0.11,276.00,VWS V14.01,2013-03-22 19:22:00,
2013-03-22 12:27:00,42.0,37.8,30.26,NNE,18,1.0,4.0,85,0.02,,---,0.11,232.00,VWS V14.01,2013-03-22 19:27:00,
2013-03-22 12:32:00,41.9,37.1,30.26,NNE,14,0.0,4.0,83,0.02,,---,0.11,155.00,VWS V14.01,2013-03-22 19:32:00,
2013-03-22 12:37:00,41.7,37.8,30.26,ENE,64,0.0,2.0,86,0.01,,---,0.11,105.00,VWS V14.01,2013-03-22 19:37:00,
2013-03-22 12:42:00,41.3,37.1,30.26,NE,34,0.0,3.0,85,0.01,,---,0.11,86.00,VWS V14.01,2013-03-22 19:42:00,
2013-03-22 12:48:00,40.4,35.7,30.26,NNE,30,0.0,2.0,83,0.01,,---,0.11,98.00,VWS V14.01,2013-03-22 19:48:00,
2013-03-22 12:53:00,39.8,35.7,30.26,NE,51,0.0,1.0,85,0.01,,---,0.11,125.00,VWS V14.01,2013-03-22 19:53:00,
2013-03-22 12:58:00,39.4,35.6,30.26,NW,320,0.0,2.0,86,0.01,,---,0.11,149.00,VWS V14.01,2013-03-22 19:58:00,
2013-03-22 13:03:00,39.4,36.2,30.26,NW,320,0.0,1.0,88,0.01,,---,0.12,176.00,VWS V14.01,2013-03-22 20:03:00,
2013-03-22 13:08:00,39.3,35.2,30.26,East,96,1.0,4.0,85,0.01,,---,0.12,865.00,VWS V14.01,2013-03-22 20:08:00,
2013-03-22 13:13:00,39.7,36.4,30.25,ENE,60,0.0,4.0,88,0.01,,---,0.12,846.00,VWS V14.01,2013-03-22 20:13:00,
2013-03-22 13:18:00,41.3,38.9,30.25,NE,52,0.0,3.0,91,0.01,,---,0.12,842.00,VWS V14.01,2013-03-22 20:18:00,
2013-03-22 13:23:00,42.6,38.7,30.25,WNW,288,2.0,3.0,86,0.01,,---,0.12,840.00,VWS V14.01,2013-03-22 20:23:00,
2013-03-22 13:28:00,43.4,36.7,30.25,East,79,3.0,5.0,77,0.01,,---,0.12,838.00,VWS V14.01,2013-03-22 20:28:00,
2013-03-22 13:33:00,43.9,38.1,30.25,WNW,295,3.0,4.0,80,0.01,,---,0.12,872.00,VWS V14.01,2013-03-22 20:33:00,
2013-03-22 13:38:00,44.7,39.2,30.25,West,267,0.0,3.0,81,0.01,,---,0.12,281.00,VWS V14.01,2013-03-22 20:38:00,
2013-03-22 13:43:00,44.9,36.4,30.25,WNW,299,0.0,3.0,72,0.01,,---,0.12,239.00,VWS V14.01,2013-03-22 20:43:00,
2013-03-22 13:48:00,44.3,36.2,30.25,ENE,65,1.0,3.0,73,0.01,,---,0.12,221.00,VWS V14.01,2013-03-22 20:48:00,
2013-03-22 13:53:00,43.7,35.3,30.26,East,101,2.0,2.0,72,0.01,,---,0.12,251.00,VWS V14.01,2013-03-22 20:53:00,
2013-03-22 13:58:00,43.4,37.7,30.25,North,355,2.0,4.0,80,0.01,,---,0.12,949.00,VWS V14.01,2013-03-22 20:58:00,
2013-03-22 14:03:00,44.3,39.8,30.25,NW,305,1.0,3.0,84,0.00,,---,0.12,956.00,VWS V14.01,2013-03-22 21:03:00,
2013-03-22 14:08:00,45.0,37.2,30.25,West,265,0.0,4.0,74,0.00,,---,0.12,178.00,VWS V14.01,2013-03-22 21:08:00,
2013-03-22 14:13:00,45.2,37.8,30.25,NW,325,0.0,4.0,75,0.00,,---,0.12,142.00,VWS V14.01,2013-03-22 21:13:00,
2013-03-22 14:18:00,44.9,36.4,30.25,NW,315,0.0,1.0,72,0.00,,---,0.12,183.00,VWS V14.01,2013-03-22 21:18:00,
2013-03-22 14:23:00,44.6,37.2,30.25,NW,315,0.0,1.0,75,0.00,,---,0.12,355.00,VWS V14.01,2013-03-22 21:23:00,
2013-03-22 14:28:00,44.0,35.9,30.25,NNE,32,0.0,4.0,73,0.00,,---,0.12,206.00,VWS V14.01,2013-03-22 21:28:00,
2013-03-22 14:33:00,43.4,33.6,30.25,ENE,74,2.0,3.0,68,0.00,,---,0.12,269.00,VWS V14.01,2013-03-22 21:33:00,
2013-03-22 14:38:00,43.0,34.2,30.25,ENE,74,1.0,3.0,71,0.00,,---,0.12,756.00,VWS V14.01,2013-03-22 21:38:00,
2013-03-22 14:43:00,43.8,35.0,30.25,East,94,0.0,3.0,71,0.00,,---,0.12,756.00,VWS V14.01,2013-03-22 21:43:00,
2013-03-22 14:48:00,45.1,37.3,30.25,SW,221,2.0,2.0,74,0.00,,---,0.12,773.00,VWS V14.01,2013-03-22 21:48:00,
2013-03-22 14:53:00,46.6,39.1,30.25,WNW,293,3.0,5.0,75,0.00,,---,0.12,816.00,VWS V14.01,2013-03-22 21:53:00,
2013-03-22 14:58:00,47.4,37.8,30.24,NNE,30,1.0,5.0,69,0.00,,---,0.12,807.00,VWS V14.01,2013-03-22 21:58:00,
2013-03-22 15:03:00,47.7,37.7,30.25,West,279,2.0,4.0,68,0.00,,---,0.12,823.00,VWS V14.01,2013-03-22 22:03:00,
2013-03-22 15:08:00,47.9,35.1,30.25,West,263,3.0,7.0,61,0.00,,---,0.12,789.00,VWS V14.01,2013-03-22 22:08:00,
2013-03-22 15:13:00,48.7,37.1,30.25,NNW,332,1.0,7.0,64,0.00,,---,0.12,555.00,VWS V14.01,2013-03-22 22:13:00,
2013-03-22 15:18:00,48.9,34.3,30.25,NNE,24,0.0,5.0,57,0.00,,---,0.12,559.00,VWS V14.01,2013-03-22 22:18:00,
2013-03-22 15:23:00,48.7,37.5,30.25,North,5,0.0,5.0,65,0.00,,---,0.12,538.00,VWS V14.01,2013-03-22 22:23:00,
2013-03-22 15:28:00,48.8,38.0,30.25,SW,234,0.0,5.0,66,0.00,,---,0.12,592.00,VWS V14.01,2013-03-22 22:28:00,
2013-03-22 15:33:00,49.2,37.2,30.25,NNE,21,0.0,4.0,63,0.00,,---,0.12,473.00,VWS V14.01,2013-03-22 22:33:00,
2013-03-22 15:38:00,49.1,36.2,30.25,NNE,15,2.0,6.0,61,0.00,,---,0.12,499.00,VWS V14.01,2013-03-22 22:38:00,
2013-03-22 15:44:00,48.3,34.2,30.25,SSE,165,2.0,6.0,58,0.00,,---,0.12,629.00,VWS V14.01,2013-03-22 22:44:00,
2013-03-22 15:49:00,48.2,34.6,30.25,East,94,2.0,4.0,59,0.00,,---,0.12,533.00,VWS V14.01,2013-03-22 22:49:00,
2013-03-22 15:54:00,47.9,35.5,30.25,SE,127,0.0,5.0,62,0.00,,---,0.12,397.00,VWS V14.01,2013-03-22 22:54:00,
2013-03-22 15:59:00,47.8,35.4,30.25,NW,313,0.0,5.0,62,0.00,,---,0.12,274.00,VWS V14.01,2013-03-22 22:59:00,
2013-03-22 16:04:00,47.3,35.0,30.25,East,84,1.0,7.0,62,0.00,,---,0.12,116.00,VWS V14.01,2013-03-22 23:04:00,
2013-03-22 16:09:00,46.8,34.5,30.25,WNW,294,1.0,5.0,62,0.00,,---,0.12,137.00,VWS V14.01,2013-03-22 23:09:00,
2013-03-22 16:14:00,46.4,33.7,30.25,WSW,252,0.0,3.0,61,0.00,,---,0.12,360.00,VWS V14.01,2013-03-22 23:14:00,
2013-03-22 16:19:00,46.1,33.4,30.25,East,83,0.0,4.0,61,0.00,,---,0.12,341.00,VWS V14.01,2013-03-22 23:19:00,
2013-03-22 16:24:00,46.2,35.5,30.25,East,79,2.0,5.0,66,0.00,,---,0.12,130.00,VWS V14.01,2013-03-22 23:24:00,
2013-03-22 16:29:00,46.0,34.1,30.25,East,85,0.0,3.0,63,0.00,,---,0.12,320.00,VWS V14.01,2013-03-22 23:29:00,
2013-03-22 16:34:00,45.6,34.5,30.25,East,94,0.0,3.0,65,0.00,,---,0.12,125.00,VWS V14.01,2013-03-22 23:34:00,
2013-03-22 16:39:00,45.5,34.4,30.25,East,94,0.0,2.0,65,0.00,,---,0.12,288.00,VWS V14.01,2013-03-22 23:39:00,
2013-03-22 16:44:00,45.5,32.8,30.25,NNE,23,0.0,2.0,61,0.00,,---,0.12,322.00,VWS V14.01,2013-03-22 23:44:00,
2013-03-22 16:49:00,45.4,31.9,30.25,NE,36,0.0,3.0,59,0.00,,---,0.12,234.00,VWS V14.01,2013-03-22 23:49:00,
2013-03-22 16:54:00,45.0,32.4,30.25,NE,41,0.0,3.0,61,0.00,,---,0.12,67.00,VWS V14.01,2013-03-22 23:54:00,
2013-03-22 16:59:00,44.8,33.4,30.26,NE,42,0.0,2.0,64,0.00,,---,0.12,93.00,VWS V14.01,2013-03-22 23:59:00,
2013-03-22 17:04:00,44.8,33.4,30.26,NE,42,0.0,2.0,64,0.00,,---,0.12,113.00,VWS V14.01,2013-03-23 00:04:00,
2013-03-22 17:09:00,44.6,32.8,30.26,WNW,290,0.0,2.0,63,0.00,,---,0.12,93.00,VWS V14.01,2013-03-23 00:09:00,
2013-03-22 17:14:00,44.3,32.1,30.26,NNW,339,0.0,4.0,62,0.00,,---,0.12,63.00,VWS V14.01,2013-03-23 00:14:00,
2013-03-22 17:19:00,44.2,33.2,30.26,NNW,339,0.0,4.0,65,0.00,,---,0.12,308.00,VWS V14.01,2013-03-23 00:19:00,
2013-03-22 17:24:00,44.3,31.7,30.26,NW,321,2.0,2.0,61,0.00,,---,0.12,292.00,VWS V14.01,2013-03-23 00:24:00,
2013-03-22 17:29:00,44.7,30.4,30.26,NW,323,0.0,2.0,57,0.00,,---,0.12,278.00,VWS V14.01,2013-03-23 00:29:00,
2013-03-22 17:34:00,44.8,30.5,30.26,West,279,1.0,4.0,57,0.00,,---,0.12,262.00,VWS V14.01,2013-03-23 00:34:00,
2013-03-22 17:39:00,44.7,31.3,30.26,WNW,292,0.0,4.0,59,0.00,,---,0.12,251.00,VWS V14.01,2013-03-23 00:39:00,
2013-03-22 17:44:00,44.4,31.4,30.26,WNW,293,0.0,2.0,60,0.00,,---,0.12,257.00,VWS V14.01,2013-03-23 00:44:00,
2013-03-22 17:49:00,44.2,32.8,30.26,WNW,293,0.0,3.0,64,0.00,,---,0.12,79.00,VWS V14.01,2013-03-23 00:49:00,
2013-03-22 17:54:00,44.0,31.8,30.26,NNW,328,0.0,4.0,62,0.00,,---,0.12,46.00,VWS V14.01,2013-03-23 00:54:00,
2013-03-22 17:59:00,43.7,32.3,30.26,West,261,0.0,4.0,64,0.00,,---,0.12,42.00,VWS V14.01,2013-03-23 00:59:00,
2013-03-22 18:04:00,43.4,32.4,30.26,West,261,0.0,1.0,65,0.00,,---,0.12,39.00,VWS V14.01,2013-03-23 01:04:00,
2013-03-22 18:09:00,43.1,31.4,30.26,NNE,15,0.0,1.0,63,0.00,,---,0.12,37.00,VWS V14.01,2013-03-23 01:09:00,
2013-03-22 18:14:00,42.8,31.9,30.26,NNE,15,0.0,0.0,65,0.00,,---,0.12,30.00,VWS V14.01,2013-03-23 01:14:00,
2013-03-22 18:19:00,42.4,30.7,30.26,NNE,15,0.0,1.0,63,0.00,,---,0.12,30.00,VWS V14.01,2013-03-23 01:19:00,
2013-03-22 18:24:00,42.1,31.2,30.26,NNE,15,0.0,1.0,65,0.00,,---,0.12,28.00,VWS V14.01,2013-03-23 01:24:00,
2013-03-22 18:29:00,41.8,31.3,30.26,NNE,15,0.0,0.0,66,0.00,,---,0.12,21.00,VWS V14.01,2013-03-23 01:29:00,
2013-03-22 18:34:00,41.4,30.5,30.26,NNE,15,0.0,0.0,65,0.00,,---,0.12,21.00,VWS V14.01,2013-03-23 01:34:00,
2013-03-22 18:39:00,41.1,31.4,30.27,NNE,15,0.0,0.0,68,0.00,,---,0.12,19.00,VWS V14.01,2013-03-23 01:39:00,
2013-03-22 18:44:00,40.7,31.3,30.26,NNE,15,0.0,0.0,69,0.00,,---,0.12,21.00,VWS V14.01,2013-03-23 01:44:00,
2013-03-22 18:49:00,40.4,31.0,30.26,NNE,15,0.0,0.0,69,0.00,,---,0.12,19.00,VWS V14.01,2013-03-23 01:49:00,
2013-03-22 18:54:00,40.1,31.5,30.26,NNE,15,0.0,0.0,71,0.00,,---,0.12,16.00,VWS V14.01,2013-03-23 01:54:00,
2013-03-22 18:59:00,39.8,31.2,30.26,NNE,15,0.0,0.0,71,0.00,,---,0.12,12.00,VWS V14.01,2013-03-23 01:59:00,
2013-03-22 19:04:00,39.4,31.1,30.26,NNE,15,0.0,0.0,72,0.00,,---,0.12,11.00,VWS V14.01,2013-03-23 02:04:00,
2013-03-22 19:09:00,39.1,31.2,30.26,NNE,15,0.0,0.0,73,0.00,,---,0.12,9.00,VWS V14.01,2013-03-23 02:09:00,
2013-03-22 19:14:00,38.8,31.6,30.26,NNE,15,0.0,0.0,75,0.00,,---,0.12,5.00,VWS V14.01,2013-03-23 02:14:00,
2013-03-22 19:19:00,38.4,31.2,30.26,NNE,15,0.0,0.0,75,0.00,,---,0.12,0.00,VWS V14.01,2013-03-23 02:19:00,
2013-03-22 19:24:00,38.1,31.2,30.26,NNE,15,0.0,0.0,76,0.00,,---,0.12,0.00,VWS V14.01,2013-03-23 02:24:00,
2013-03-22 19:29:00,37.8,31.2,30.26,NNE,15,0.0,0.0,77,0.00,,---,0.12,0.00,VWS V14.01,2013-03-23 02:29:00,
2013-03-22 19:34:00,37.5,31.3,30.26,NNE,15,0.0,0.0,78,0.00,,---,0.12,0.00,VWS V14.01,2013-03-23 02:34:00,
2013-03-22 19:39:00,37.1,30.9,30.26,NNE,15,0.0,0.0,78,0.00,,---,0.12,0.00,VWS V14.01,2013-03-23 02:39:00,
2013-03-22 19:44:00,36.7,30.2,30.26,NNE,15,0.0,0.0,77,0.00,,---,0.12,0.00,VWS V14.01,2013-03-23 02:44:00,
2013-03-22 19:49:00,36.4,30.2,30.26,NNE,15,0.0,0.0,78,0.00,,---,0.12,0.00,VWS V14.01,2013-03-23 02:49:00,
2013-03-22 19:54:00,36.0,30.1,30.27,NNE,15,0.0,0.0,79,0.00,,---,0.12,0.00,VWS V14.01,2013-03-23 02:54:00,
2013-03-22 19:59:00,35.7,29.8,30.27,NNE,15,0.0,0.0,79,0.00,,---,0.12,0.00,VWS V14.01,2013-03-23 02:59:00,
2013-03-22 20:04:00,35.4,29.5,30.27,NNE,15,0.0,0.0,79,0.00,,---,0.12,0.00,VWS V14.01,2013-03-23 03:04:00,
2013-03-22 20:09:00,35.2,29.4,30.27,NNE,15,0.0,0.0,79,0.00,,---,0.12,0.00,VWS V14.01,2013-03-23 03:09:00,
2013-03-22 20:14:00,35.0,29.8,30.27,NNE,15,0.0,0.0,81,0.00,,---,0.12,0.00,VWS V14.01,2013-03-23 03:14:00,
2013-03-22 20:19:00,34.7,29.2,30.27,NNE,15,0.0,0.0,80,0.00,,---,0.12,0.00,VWS V14.01,2013-03-23 03:19:00,
2013-03-22 20:24:00,34.4,28.9,30.27,NNE,15,0.0,0.0,80,0.00,,---,0.12,0.00,VWS V14.01,2013-03-23 03:24:00,
2013-03-22 20:29:00,34.4,29.2,30.28,NNE,15,0.0,0.0,81,0.00,,---,0.12,0.00,VWS V14.01,2013-03-23 03:29:00,
2013-03-22 20:34:00,34.4,29.2,30.28,NNE,15,0.0,0.0,81,0.00,,---,0.12,0.00,VWS V14.01,2013-03-23 03:34:00,
2013-03-22 20:39:00,34.2,29.0,30.28,NNE,15,0.0,0.0,81,0.00,,---,0.12,0.00,VWS V14.01,2013-03-23 03:39:00,
2013-03-22 20:44:00,34.1,29.2,30.28,NNE,15,0.0,0.0,82,0.00,,---,0.12,0.00,VWS V14.01,2013-03-23 03:44:00,
2013-03-22 20:49:00,33.8,28.9,30.28,NNE,15,0.0,0.0,82,0.00,,---,0.12,0.00,VWS V14.01,2013-03-23 03:49:00,
2013-03-22 20:55:00,33.7,28.8,30.29,NNE,15,0.0,0.0,82,0.00,,---,0.12,0.00,VWS V14.01,2013-03-23 03:55:00,
2013-03-22 21:00:00,33.4,28.8,30.29,NNE,15,0.0,0.0,83,0.00,,---,0.12,0.00,VWS V14.01,2013-03-23 04:00:00,
2013-03-22 21:05:00,33.2,28.6,30.29,NNE,15,0.0,0.0,83,0.00,,---,0.12,0.00,VWS V14.01,2013-03-23 04:05:00,
2013-03-22 21:10:00,33.1,28.8,30.30,NNE,15,0.0,0.0,84,0.00,,---,0.12,0.00,VWS V14.01,2013-03-23 04:10:00,
2013-03-22 21:15:00,32.9,28.6,30.30,NNE,15,0.0,0.0,84,0.00,,---,0.12,0.00,VWS V14.01,2013-03-23 04:15:00,
2013-03-22 21:20:00,32.8,28.8,30.30,NNE,15,0.0,0.0,85,0.00,,---,0.12,0.00,VWS V14.01,2013-03-23 04:20:00,
2013-03-22 21:25:00,32.7,29.0,30.30,NNE,15,0.0,0.0,86,0.00,,---,0.12,0.00,VWS V14.01,2013-03-23 04:25:00,
2013-03-22 21:30:00,32.7,29.0,30.30,NNE,15,0.0,0.0,86,0.00,,---,0.12,0.00,VWS V14.01,2013-03-23 04:30:00,
2013-03-22 21:35:00,32.6,28.9,30.31,NNE,15,0.0,0.0,86,0.00,,---,0.12,0.00,VWS V14.01,2013-03-23 04:35:00,
2013-03-22 21:40:00,32.5,28.8,30.31,NNE,15,0.0,0.0,86,0.00,,---,0.12,0.00,VWS V14.01,2013-03-23 04:40:00,
2013-03-22 21:45:00,32.5,29.1,30.31,NNE,15,0.0,1.0,87,0.00,,---,0.12,0.00,VWS V14.01,2013-03-23 04:45:00,
2013-03-22 21:50:00,32.5,29.4,30.31,NNE,15,0.0,1.0,88,0.00,,---,0.12,0.00,VWS V14.01,2013-03-23 04:50:00,
2013-03-22 21:55:00,32.4,29.2,30.30,NNE,15,0.0,0.0,88,0.00,,---,0.12,0.00,VWS V14.01,2013-03-23 04:55:00,
2013-03-22 22:00:00,32.4,29.2,30.31,NNE,15,0.0,0.0,88,0.00,,---,0.12,0.00,VWS V14.01,2013-03-23 05:00:00,
2013-03-22 22:05:00,32.3,29.4,30.30,NNE,15,0.0,0.0,89,0.00,,---,0.12,0.00,VWS V14.01,2013-03-23 05:05:00,
2013-03-22 22:10:00,32.2,29.3,30.31,NNE,15,0.0,0.0,89,0.00,,---,0.12,0.00,VWS V14.01,2013-03-23 05:10:00,
2013-03-22 22:15:00,32.1,29.2,30.30,NNE,15,0.0,0.0,89,0.00,,---,0.12,0.00,VWS V14.01,2013-03-23 05:15:00,
2013-03-22 22:20:00,31.9,29.0,30.30,NNE,15,0.0,0.0,89,0.00,,---,0.12,0.00,VWS V14.01,2013-03-23 05:20:00,
2013-03-22 22:25:00,31.8,29.2,30.31,NNE,15,0.0,0.0,90,0.00,,---,0.12,0.00,VWS V14.01,2013-03-23 05:25:00,
2013-03-22 22:30:00,31.7,29.1,30.30,NNE,15,0.0,0.0,90,0.00,,---,0.12,0.00,VWS V14.01,2013-03-23 05:30:00,
2013-03-22 22:36:00,31.7,29.1,30.31,NNE,15,0.0,0.0,90,0.00,,---,0.12,0.00,VWS V14.01,2013-03-23 05:36:00,
2013-03-22 22:41:00,31.6,29.0,30.31,NNE,15,0.0,0.0,90,0.00,,---,0.12,0.00,VWS V14.01,2013-03-23 05:41:00,
2013-03-22 22:46:00,31.5,29.2,30.30,NNE,15,0.0,0.0,91,0.00,,---,0.12,0.00,VWS V14.01,2013-03-23 05:46:00,
2013-03-22 22:51:00,31.5,29.2,30.30,NNE,15,0.0,0.0,91,0.00,,---,0.12,0.00,VWS V14.01,2013-03-23 05:51:00,
2013-03-22 22:56:00,31.4,29.1,30.30,NNE,15,0.0,0.0,91,0.00,,---,0.12,0.00,VWS V14.01,2013-03-23 05:56:00,
2013-03-22 23:01:00,31.4,29.4,30.30,NNE,15,0.0,0.0,92,0.00,,---,0.12,0.00,VWS V14.01,2013-03-23 06:01:00,
2013-03-22 23:06:00,31.4,29.4,30.30,NNE,15,0.0,0.0,92,0.00,,---,0.12,0.00,VWS V14.01,2013-03-23 06:06:00,
2013-03-22 23:11:00,31.3,29.2,30.30,NNE,15,0.0,0.0,92,0.00,,---,0.12,0.00,VWS V14.01,2013-03-23 06:11:00,
2013-03-22 23:16:00,31.2,29.1,30.30,NNE,15,0.0,0.0,92,0.00,,---,0.12,0.00,VWS V14.01,2013-03-23 06:16:00,
2013-03-22 23:21:00,31.1,29.0,30.30,NNE,15,0.0,0.0,92,0.00,,---,0.12,0.00,VWS V14.01,2013-03-23 06:21:00,
2013-03-22 23:26:00,31.0,29.0,30.30,NNE,15,0.0,0.0,92,0.00,,---,0.12,0.00,VWS V14.01,2013-03-23 06:26:00,
2013-03-22 23:31:00,30.9,28.9,30.30,NNE,15,0.0,0.0,92,0.00,,---,0.12,0.00,VWS V14.01,2013-03-23 06:31:00,
2013-03-22 23:36:00,30.8,28.8,30.30,NNE,15,0.0,0.0,92,0.00,,---,0.12,0.00,VWS V14.01,2013-03-23 06:36:00,
2013-03-22 23:42:00,30.6,28.6,30.31,NNE,15,0.0,0.0,92,0.00,,---,0.12,0.00,VWS V14.01,2013-03-23 06:42:00,
2013-03-22 23:47:00,30.5,28.5,30.31,NNE,15,0.0,0.0,92,0.00,,---,0.12,0.00,VWS V14.01,2013-03-23 06:47:00,
2013-03-22 23:52:00,30.4,28.4,30.31,NNE,15,0.0,0.0,92,0.00,,---,0.12,0.00,VWS V14.01,2013-03-23 06:52:00,
2013-03-22 23:57:00,30.3,28.3,30.31,NNE,15,0.0,0.0,92,0.00,,---,0.12,0.00,VWS V14.01,2013-03-23 06:57:00,